Time;durP1;ratioP1;P1;durP2;ratioP2;P2;SDS_P1;SDS_P2;PMS_P1;PMS_P2;Temp;Humidity;BMP_temperature;BMP_pressure;BME280_temperature;BME280_humidity;BME280_pressure;Samples;Min_cycle;Max_cycle;Signal;HPM_P1;HPM_P2
2024/04/20 00:02:30;;;;;;;3.00;2.70;;;;;;;5.38;84.66;97592.66;226996;1275;22565;-78
2024/04/20 00:07:32;;;;;;;3.00;2.60;;;;;;;5.38;84.43;97591.70;226972;1273;22603;-78
2024/04/20 00:12:33;;;;;;;3.00;2.70;;;;;;;5.37;84.57;97591.80;226770;1275;22553;-77
2024/04/20 00:17:36;;;;;;;2.90;2.70;;;;;;;5.38;84.47;97590.77;226999;1274;22557;-77
2024/04/20 00:22:38;;;;;;;3.50;3.20;;;;;;;5.37;84.74;97590.43;226691;1270;23047;-79
2024/04/20 00:27:40;;;;;;;3.30;3.00;;;;;;;5.34;84.82;97584.09;226944;1270;22535;-76
2024/04/20 00:32:42;;;;;;;4.20;3.80;;;;;;;5.31;84.89;97589.21;226791;1269;22556;-76
2024/04/20 00:37:43;;;;;;;3.40;3.10;;;;;;;5.30;85.04;97588.40;226933;1275;22724;-77
2024/04/20 00:42:45;;;;;;;3.90;3.60;;;;;;;5.30;84.85;97587.15;226618;1275;22556;-77
2024/04/20 00:47:47;;;;;;;4.30;3.90;;;;;;;5.31;85.01;97589.66;226911;1275;22540;-77
2024/04/20 00:52:49;;;;;;;4.50;3.20;;;;;;;5.32;85.11;97589.60;226824;1273;22574;-77
2024/04/20 00:57:51;;;;;;;3.20;2.90;;;;;;;5.31;85.24;97590.42;226779;1270;22542;-77
2024/04/20 01:02:54;;;;;;;3.40;3.10;;;;;;;5.29;84.95;97595.69;227006;1273;24931;-77
2024/04/20 01:07:56;;;;;;;4.90;3.40;;;;;;;5.27;84.97;97597.86;226968;1275;25423;-78
2024/04/20 01:13:06;;;;;;;3.30;2.90;;;;;;;5.26;85.03;97598.66;227008;1274;22552;-77
2024/04/20 01:18:08;;;;;;;3.70;3.30;;;;;;;5.25;85.06;97593.24;226593;1271;221783;-77
2024/04/20 01:23:11;;;;;;;4.40;3.20;;;;;;;5.21;85.15;97594.96;226733;1272;22546;-77
2024/04/20 01:28:13;;;;;;;2.70;2.30;;;;;;;5.16;85.18;97596.38;226828;1269;22563;-76
2024/04/20 01:33:15;;;;;;;3.20;2.60;;;;;;;5.12;84.94;97595.63;226790;1272;22542;-78
2024/04/20 01:38:17;;;;;;;3.30;3.00;;;;;;;5.09;85.05;97601.23;226996;1272;22577;-77
2024/04/20 01:43:19;;;;;;;4.10;3.70;;;;;;;5.07;84.96;97601.35;227029;1273;24246;-77
2024/04/20 01:48:21;;;;;;;4.60;4.10;;;;;;;5.06;85.35;97602.27;226844;1274;22523;-79
2024/04/20 01:53:23;;;;;;;4.90;4.50;;;;;;;5.07;85.22;97607.27;226890;1273;22645;-77
2024/04/20 01:58:25;;;;;;;5.20;4.70;;;;;;;5.07;85.37;97608.08;226856;1272;22574;-77
2024/04/20 02:03:27;;;;;;;5.50;4.70;;;;;;;5.07;85.53;97613.02;226982;1272;22708;-76
2024/04/20 02:08:29;;;;;;;5.80;4.40;;;;;;;5.09;85.64;97615.31;226716;1275;22631;-76
2024/04/20 02:13:31;;;;;;;5.50;4.70;;;;;;;5.10;85.75;97620.89;226713;1270;22553;-77
2024/04/20 02:18:33;;;;;;;5.20;4.70;;;;;;;5.12;85.63;97617.17;226792;1270;22549;-77
2024/04/20 02:23:43;;;;;;;5.60;4.90;;;;;;;5.13;85.88;97616.38;226742;1273;22554;-77
2024/04/20 02:28:45;;;;;;;4.40;4.00;;;;;;;5.13;85.66;97617.23;226694;1275;22559;-77
2024/04/20 02:33:47;;;;;;;4.30;3.60;;;;;;;5.14;85.90;97617.45;226672;1267;22564;-78
2024/04/20 02:38:48;;;;;;;4.10;3.70;;;;;;;5.12;85.99;97617.50;226941;1272;22556;-77
2024/04/20 02:43:50;;;;;;;4.10;3.70;;;;;;;5.10;86.08;97618.91;226784;1273;22684;-78
2024/04/20 02:48:53;;;;;;;4.10;3.70;;;;;;;5.08;86.35;97622.83;226865;1273;22560;-77
2024/04/20 02:53:54;;;;;;;4.30;3.90;;;;;;;5.08;86.52;97623.20;226906;1269;22607;-78
2024/04/20 02:58:56;;;;;;;4.70;4.00;;;;;;;5.08;86.29;97621.79;226912;1273;22598;-77
2024/04/20 03:03:58;;;;;;;5.20;3.70;;;;;;;5.07;86.32;97623.98;226981;1272;25434;-77
2024/04/20 03:09:00;;;;;;;4.00;3.70;;;;;;;5.07;86.33;97625.23;226981;1275;25335;-76
2024/04/20 03:14:02;;;;;;;3.70;3.40;;;;;;;5.09;86.13;97625.58;226880;1269;23046;-76
2024/04/20 03:19:04;;;;;;;4.40;3.00;;;;;;;5.09;86.20;97625.99;226741;1273;22567;-77
2024/04/20 03:24:06;;;;;;;4.00;3.50;;;;;;;5.10;86.44;97626.80;226795;1273;22527;-76
2024/04/20 03:29:08;;;;;;;4.40;4.00;;;;;;;5.09;86.49;97629.69;226991;1269;22535;-77
2024/04/20 03:34:09;;;;;;;4.80;4.40;;;;;;;5.08;86.57;97628.91;226934;1272;22535;-76
2024/04/20 03:39:12;;;;;;;4.50;4.10;;;;;;;5.10;86.37;97638.69;226953;1269;22614;-76
2024/04/20 03:44:14;;;;;;;4.30;4.00;;;;;;;5.11;86.34;97642.61;226960;1275;22522;-77
2024/04/20 03:49:16;;;;;;;3.90;3.60;;;;;;;5.10;86.43;97645.00;226984;1273;22570;-77
2024/04/20 03:54:18;;;;;;;3.10;2.90;;;;;;;5.07;86.63;97643.00;226761;1275;22545;-76
2024/04/20 03:59:19;;;;;;;3.70;3.20;;;;;;;5.04;86.47;97646.55;226897;1273;22538;-78
2024/04/20 04:04:21;;;;;;;3.30;3.00;;;;;;;5.04;86.43;97657.42;226906;1272;22561;-76
2024/04/20 04:09:23;;;;;;;3.50;3.10;;;;;;;5.02;86.45;97657.77;226686;1272;22545;-77
2024/04/20 04:14:25;;;;;;;3.30;3.10;;;;;;;5.02;86.51;97662.67;226909;1275;23311;-77
2024/04/20 04:19:27;;;;;;;5.30;3.20;;;;;;;5.00;86.52;97665.48;226680;1275;22653;-77
2024/04/20 04:24:29;;;;;;;3.40;3.20;;;;;;;5.04;86.69;97669.70;226788;1275;22552;-76
2024/04/20 04:29:30;;;;;;;4.00;3.50;;;;;;;5.10;86.47;97677.39;226928;1272;22592;-78
2024/04/20 04:34:32;;;;;;;4.20;3.80;;;;;;;5.16;86.24;97683.05;226728;1272;22581;-77
2024/04/20 04:39:34;;;;;;;3.50;3.20;;;;;;;5.21;86.45;97688.44;226954;1269;22763;-77
2024/04/20 04:44:39;;;;;;;3.40;3.10;;;;;;;5.24;86.15;97687.22;226725;1273;22607;-77
2024/04/20 04:49:41;;;;;;;4.60;3.60;;;;;;;5.28;86.22;97691.67;226950;1274;22549;-76
2024/04/20 04:54:43;;;;;;;4.50;3.00;;;;;;;5.33;86.09;97698.39;226901;1272;23226;-78
2024/04/20 04:59:45;;;;;;;3.10;2.90;;;;;;;5.40;86.26;97708.09;226736;1272;22560;-76
2024/04/20 05:04:47;;;;;;;2.60;2.40;;;;;;;5.45;86.12;97710.83;226690;1275;25388;-77
2024/04/20 05:09:49;;;;;;;2.90;2.20;;;;;;;5.48;86.00;97717.92;226982;1275;22590;-78
2024/04/20 05:14:52;;;;;;;2.10;1.90;;;;;;;5.47;85.81;97721.15;226755;1272;23463;-77
2024/04/20 05:19:54;;;;;;;1.80;1.70;;;;;;;5.48;85.74;97731.79;226913;1273;22562;-76
2024/04/20 05:24:56;;;;;;;2.40;1.90;;;;;;;5.50;85.66;97733.92;226955;1273;22538;-77
2024/04/20 05:29:57;;;;;;;2.20;1.80;;;;;;;5.51;85.50;97738.98;226601;1275;22541;-78
2024/04/20 05:34:59;;;;;;;1.90;1.70;;;;;;;5.52;85.46;97743.50;226731;1273;22657;-77
2024/04/20 05:40:01;;;;;;;2.90;2.60;;;;;;;5.52;85.42;97748.15;226952;1272;22545;-76
2024/04/20 05:45:06;;;;;;;2.60;2.40;;;;;;;5.56;85.55;97755.90;226935;1272;25457;-77
2024/04/20 05:50:08;;;;;;;2.90;2.60;;;;;;;5.62;85.38;97760.19;226735;1275;22681;-78
2024/04/20 05:55:10;;;;;;;2.70;2.40;;;;;;;5.69;85.51;97766.10;226742;1275;22535;-78
2024/04/20 06:00:12;;;;;;;2.40;2.20;;;;;;;5.81;85.38;97768.64;226948;1273;22551;-77
2024/04/20 06:05:14;;;;;;;2.90;2.50;;;;;;;5.91;85.45;97767.06;226812;1274;22557;-79
2024/04/20 06:10:16;;;;;;;3.40;2.60;;;;;;;6.07;85.32;97774.35;226694;1273;25411;-77
2024/04/20 06:15:18;;;;;;;3.20;2.90;;;;;;;6.16;84.63;97775.34;226765;1273;22564;-77
2024/04/20 06:20:19;;;;;;;3.60;3.30;;;;;;;6.28;84.79;97782.25;226795;1274;22578;-79
2024/04/20 06:25:21;;;;;;;3.80;3.40;;;;;;;6.40;84.90;97788.14;226742;1272;22545;-76
2024/04/20 06:30:23;;;;;;;3.40;3.00;;;;;;;6.48;84.40;97790.54;226926;1273;22547;-77
2024/04/20 06:35:25;;;;;;;5.50;3.60;;;;;;;6.55;84.08;97794.65;226788;1269;22649;-78
2024/04/20 06:40:26;;;;;;;3.50;3.20;;;;;;;6.57;84.02;97799.11;226932;1272;22542;-79
2024/04/20 06:45:28;;;;;;;4.40;3.30;;;;;;;6.61;84.01;97807.71;226882;1272;22540;-79
2024/04/20 06:50:30;;;;;;;3.30;2.90;;;;;;;6.72;83.96;97812.47;226775;1272;25211;-78
2024/04/20 06:55:35;;;;;;;2.50;2.30;;;;;;;6.75;83.74;97819.16;226524;1265;26074;-73
2024/04/20 07:00:36;;;;;;;2.80;2.30;;;;;;;6.72;83.61;97822.15;226908;1270;22554;-78
2024/04/20 07:05:38;;;;;;;1.40;1.30;;;;;;;6.80;83.51;97831.69;226959;1260;23401;-78
2024/04/20 07:10:40;;;;;;;1.60;1.30;;;;;;;6.94;83.47;97831.85;226794;1254;22587;-79
2024/04/20 07:15:49;;;;;;;1.70;1.20;;;;;;;7.09;83.12;97836.48;226814;1269;22620;-80
2024/04/20 07:20:50;;;;;;;0.80;0.80;;;;;;;7.22;82.99;97839.61;226787;1267;22541;-80
2024/04/20 07:26:04;;;;;;;1.40;1.20;;;;;;;7.42;83.14;97845.30;226499;1272;24261;-80
2024/04/20 07:31:05;;;;;;;1.20;1.00;;;;;;;7.60;82.67;97848.67;226680;1263;22688;-78
2024/04/20 07:36:07;;;;;;;2.30;1.10;;;;;;;7.72;82.31;97853.81;226928;1270;22650;-77
2024/04/20 07:41:09;;;;;;;1.20;1.00;;;;;;;7.79;81.76;97856.40;226653;1267;24248;-77
2024/04/20 07:46:11;;;;;;;1.50;1.40;;;;;;;7.87;81.76;97862.13;226775;1271;22560;-79
2024/04/20 07:51:13;;;;;;;2.30;1.60;;;;;;;7.84;81.16;97867.77;226570;1274;22535;-78
2024/04/20 07:56:15;;;;;;;1.70;1.10;;;;;;;7.83;81.36;97874.07;226863;1269;22651;-77
2024/04/20 08:01:17;;;;;;;1.50;1.00;;;;;;;7.79;80.35;97884.31;226730;1269;22541;-81
2024/04/20 08:06:19;;;;;;;2.30;1.30;;;;;;;7.70;80.64;97891.87;226765;1256;22637;-76
2024/04/20 08:11:20;;;;;;;5.10;2.30;;;;;;;7.68;80.67;97902.00;226653;1263;22547;-81
2024/04/20 08:16:22;;;;;;;2.30;1.20;;;;;;;7.72;80.59;97908.30;226907;1269;22549;-81
2024/04/20 08:21:24;;;;;;;0.50;0.40;;;;;;;7.81;80.55;97910.19;226943;1269;22645;-81
2024/04/20 08:26:26;;;;;;;0.30;0.30;;;;;;;7.87;80.36;97917.37;226701;1267;23054;-81
2024/04/20 08:31:28;;;;;;;0.40;0.30;;;;;;;7.91;80.24;97926.98;226584;1272;22547;-81
2024/04/20 08:36:32;;;;;;;0.20;0.20;;;;;;;7.91;79.87;97932.16;226356;1268;22549;-82
2024/04/20 08:41:41;;;;;;;0.20;0.20;;;;;;;7.81;78.81;97938.45;226338;1260;25974;-77
2024/04/20 08:46:44;;;;;;;0.30;0.30;;;;;;;7.72;79.27;97943.67;226508;1254;22547;-80
2024/04/20 08:51:48;;;;;;;0.20;0.20;;;;;;;7.64;78.57;97950.86;226585;1267;22490;-80
2024/04/20 08:56:50;;;;;;;0.70;0.20;;;;;;;7.58;79.13;97956.50;226682;1255;22563;-78
2024/04/20 09:01:55;;;;;;;0.50;0.50;;;;;;;7.59;78.95;97963.55;226783;1253;22552;-80
2024/04/20 09:06:57;;;;;;;0.70;0.70;;;;;;;7.62;79.47;97967.25;226961;1269;22554;-80
2024/04/20 09:11:59;;;;;;;0.70;0.70;;;;;;;7.70;79.74;97972.88;226910;1269;22535;-81
2024/04/20 09:17:09;;;;;;;;;;;;;;;7.72;79.63;97981.05;226832;1267;23044;-80
2024/04/20 09:22:12;;;;;;;2.00;1.70;;;;;;;7.71;79.29;97986.20;226527;1260;22538;-79
2024/04/20 09:27:14;;;;;;;2.90;1.40;;;;;;;7.72;80.08;97989.30;226524;1269;22575;-79
2024/04/20 09:32:16;;;;;;;1.30;1.20;;;;;;;7.64;79.59;97994.61;226730;1270;22534;-81
2024/04/20 09:37:21;;;;;;;1.20;1.00;;;;;;;7.54;79.50;98006.25;226820;1272;22577;-77
2024/04/20 09:42:28;;;;;;;1.30;1.00;;;;;;;7.49;79.44;98015.52;226703;1270;22542;-79
2024/04/20 09:47:37;;;;;;;0.80;0.70;;;;;;;7.49;79.04;98019.53;226721;1269;22573;-80
2024/04/20 09:52:51;;;;;;;0.80;0.80;;;;;;;7.58;79.05;98022.13;226772;1270;22546;-79
2024/04/20 09:57:54;;;;;;;0.80;0.70;;;;;;;7.64;78.83;98023.73;226842;1272;22533;-80
2024/04/20 10:02:58;;;;;;;6.70;5.60;;;;;;;7.82;78.79;98027.70;226704;1269;22550;-81
2024/04/20 10:08:02;;;;;;;1.90;1.20;;;;;;;7.96;78.31;98027.14;226650;1274;25335;-80
2024/04/20 10:13:05;;;;;;;0.60;0.60;;;;;;;8.16;78.46;98029.36;226712;1255;22909;-78
2024/04/20 10:18:07;;;;;;;0.50;0.50;;;;;;;8.42;78.11;98034.42;226635;1251;22521;-80
2024/04/20 10:23:15;;;;;;;0.60;0.50;;;;;;;8.67;78.13;98034.10;226803;1270;22539;-80
2024/04/20 10:28:35;;;;;;;1.00;0.80;;;;;;;8.82;77.58;98038.30;226437;1263;22604;-77
2024/04/20 10:33:41;;;;;;;0.60;0.30;;;;;;;8.94;77.25;98040.77;226742;1271;25408;-78
2024/04/20 10:38:43;;;;;;;0.30;0.30;;;;;;;9.06;76.76;98044.47;226706;1259;22566;-84
2024/04/20 10:43:47;;;;;;;0.50;0.50;;;;;;;9.19;76.75;98049.99;226785;1271;22534;-79
2024/04/20 10:48:56;;;;;;;0.50;0.50;;;;;;;9.58;77.38;98045.64;226762;1257;22564;-79
2024/04/20 10:54:03;;;;;;;0.50;0.50;;;;;;;9.95;76.78;98054.15;226803;1267;24238;-80
2024/04/20 10:59:08;;;;;;;0.80;0.80;;;;;;;10.14;76.37;98060.54;226719;1267;22544;-78
2024/04/20 11:04:11;;;;;;;1.60;0.90;;;;;;;10.36;76.15;98065.92;226499;1273;22565;-77
2024/04/20 11:09:13;;;;;;;0.90;0.90;;;;;;;10.56;75.21;98071.04;226408;1272;22541;-77
2024/04/20 11:14:17;;;;;;;0.80;0.80;;;;;;;10.71;74.70;98072.42;226488;1272;22536;-77
2024/04/20 11:19:22;;;;;;;1.30;1.20;;;;;;;10.82;74.62;98077.73;226634;1273;22525;-77
2024/04/20 11:24:25;;;;;;;1.50;1.40;;;;;;;10.69;72.78;98087.55;226754;1273;26074;-78
2024/04/20 11:29:28;;;;;;;1.00;1.00;;;;;;;10.76;73.33;98094.45;226838;1273;23606;-77
2024/04/20 11:34:30;;;;;;;1.30;1.20;;;;;;;10.94;73.10;98095.80;226794;1269;24192;-80
2024/04/20 11:39:32;;;;;;;2.20;1.20;;;;;;;10.97;72.34;98101.89;226697;1274;22529;-77
2024/04/20 11:44:36;;;;;;;2.00;1.30;;;;;;;11.17;72.80;98106.55;226982;1274;22579;-77
2024/04/20 11:49:38;;;;;;;1.70;1.60;;;;;;;11.53;72.83;98113.88;226917;1274;22537;-77
2024/04/20 11:54:39;;;;;;;1.80;1.70;;;;;;;11.82;72.17;98110.82;226931;1272;22581;-79
2024/04/20 11:59:41;;;;;;;1.90;1.80;;;;;;;12.02;71.73;98113.11;226706;1272;22544;-77
2024/04/20 12:04:45;;;;;;;2.00;1.90;;;;;;;12.02;71.31;98117.67;226845;1272;22535;-77
2024/04/20 12:09:47;;;;;;;2.00;1.90;;;;;;;12.19;71.29;98122.81;226834;1273;22487;-77
2024/04/20 12:14:49;;;;;;;2.30;2.10;;;;;;;12.01;70.01;98125.25;226747;1270;22543;-78
2024/04/20 12:19:51;;;;;;;2.60;2.10;;;;;;;11.76;70.11;98130.92;226824;1273;22550;-78
2024/04/20 12:24:54;;;;;;;2.50;2.30;;;;;;;11.79;70.92;98131.96;226745;1273;22553;-77
2024/04/20 12:29:56;;;;;;;2.80;2.50;;;;;;;11.65;70.46;98134.61;226825;1272;22639;-77
2024/04/20 12:34:58;;;;;;;3.00;2.80;;;;;;;11.65;71.55;98138.97;226756;1272;22639;-78
2024/04/20 12:40:00;;;;;;;2.50;2.30;;;;;;;11.78;71.33;98139.22;226772;1270;22534;-77
2024/04/20 12:45:03;;;;;;;2.30;2.00;;;;;;;11.79;70.78;98142.60;226733;1269;22577;-76
2024/04/20 12:50:06;;;;;;;2.40;2.20;;;;;;;11.76;70.44;98143.16;226893;1273;22536;-77
2024/04/20 12:55:09;;;;;;;2.30;2.10;;;;;;;11.68;70.08;98148.23;226729;1272;22568;-77
2024/04/20 13:00:12;;;;;;;1.90;1.80;;;;;;;11.68;70.73;98149.70;226750;1267;22539;-77
2024/04/20 13:05:14;;;;;;;3.70;3.40;;;;;;;11.61;70.39;98157.70;226936;1273;22554;-77
2024/04/20 13:10:16;;;;;;;3.60;3.30;;;;;;;11.38;70.73;98157.46;226845;1272;22663;-78
2024/04/20 13:15:18;;;;;;;3.40;3.00;;;;;;;11.14;71.21;98164.16;226702;1272;155633;-77
2024/04/20 13:20:20;;;;;;;4.00;3.20;;;;;;;10.95;71.66;98159.80;226736;1270;22542;-77
2024/04/20 13:25:22;;;;;;;3.20;2.70;;;;;;;10.98;72.21;98163.62;226859;1273;22538;-77
2024/04/20 13:30:24;;;;;;;3.10;2.80;;;;;;;11.12;72.30;98163.55;226846;1273;22543;-78
2024/04/20 13:35:25;;;;;;;2.80;2.50;;;;;;;11.21;71.92;98164.23;226735;1269;22542;-77
2024/04/20 13:40:27;;;;;;;3.30;2.60;;;;;;;11.22;71.57;98166.50;226771;1273;22542;-77
2024/04/20 13:45:29;;;;;;;2.60;2.40;;;;;;;11.32;71.44;98172.30;226710;1273;22555;-77
2024/04/20 13:50:37;;;;;;;2.90;2.60;;;;;;;11.52;71.89;98169.83;226757;1260;22543;-77
2024/04/20 13:55:39;;;;;;;2.20;2.00;;;;;;;11.78;71.28;98176.92;226761;1273;22608;-78
2024/04/20 14:00:41;;;;;;;2.60;2.40;;;;;;;11.96;70.63;98182.59;226731;1273;24340;-78
2024/04/20 14:05:48;;;;;;;2.60;2.40;;;;;;;12.23;70.65;98186.56;226774;1273;22532;-77
2024/04/20 14:11:05;;;;;;;2.50;2.30;;;;;;;12.43;70.02;98185.73;226792;1272;25939;-77
2024/04/20 14:16:07;;;;;;;3.00;2.70;;;;;;;12.59;69.56;98188.84;226742;1263;22558;-77
2024/04/20 14:21:09;;;;;;;3.60;3.30;;;;;;;12.58;68.38;98188.20;226858;1273;25330;-76
2024/04/20 14:26:11;;;;;;;2.80;2.60;;;;;;;12.53;68.46;98192.92;226766;1272;22594;-77
2024/04/20 14:31:15;;;;;;;2.90;2.60;;;;;;;12.42;68.01;98192.05;226771;1270;24289;-77
2024/04/20 14:36:17;;;;;;;2.70;2.50;;;;;;;12.13;67.90;98197.77;226948;1272;25311;-78
2024/04/20 14:41:20;;;;;;;3.20;2.90;;;;;;;11.99;68.46;98203.14;226896;1272;25282;-77
2024/04/20 14:46:21;;;;;;;2.50;2.30;;;;;;;11.95;68.95;98204.02;226724;1273;24238;-77
2024/04/20 14:51:23;;;;;;;3.00;2.70;;;;;;;12.04;68.88;98209.63;226772;1273;22701;-78
2024/04/20 14:56:25;;;;;;;3.40;3.10;;;;;;;12.08;68.46;98214.34;226788;1270;22534;-77
2024/04/20 15:01:27;;;;;;;2.80;2.60;;;;;;;11.89;67.99;98219.11;226777;1269;22558;-78
2024/04/20 15:06:29;;;;;;;3.30;2.60;;;;;;;11.73;68.49;98215.84;226727;1273;22549;-77
2024/04/20 15:11:31;;;;;;;3.40;3.10;;;;;;;11.66;68.54;98221.20;226754;1273;22645;-77
2024/04/20 15:16:33;;;;;;;2.20;2.00;;;;;;;11.52;68.24;98225.10;226745;1270;22549;-77
2024/04/20 15:21:34;;;;;;;2.30;2.10;;;;;;;11.32;68.39;98225.63;226784;1273;22552;-78
2024/04/20 15:26:36;;;;;;;2.20;2.00;;;;;;;11.07;68.38;98232.41;226867;1273;22533;-77
2024/04/20 15:31:40;;;;;;;2.20;2.00;;;;;;;10.74;68.56;98240.38;226892;1272;22542;-78
2024/04/20 15:36:43;;;;;;;2.80;2.50;;;;;;;10.40;69.27;98253.09;226770;1273;22551;-77
2024/04/20 15:41:46;;;;;;;3.10;2.80;;;;;;;10.03;70.00;98262.03;226751;1270;22541;-77
2024/04/20 15:46:48;;;;;;;3.70;3.40;;;;;;;9.67;70.84;98273.59;226692;1273;22551;-78
2024/04/20 15:51:50;;;;;;;1.50;1.40;;;;;;;9.24;71.93;98294.03;226721;1273;22549;-78
2024/04/20 15:56:52;;;;;;;1.60;1.20;;;;;;;8.40;72.32;98305.71;226769;1273;22593;-78
2024/04/20 16:01:54;;;;;;;1.60;1.10;;;;;;;7.60;73.82;98307.44;226742;1273;22532;-78
2024/04/20 16:06:56;;;;;;;1.90;1.30;;;;;;;7.09;74.96;98319.11;226846;1272;22566;-78
2024/04/20 16:11:58;;;;;;;2.00;1.80;;;;;;;6.70;76.27;98328.32;226843;1273;22597;-78
2024/04/20 16:17:00;;;;;;;3.10;1.70;;;;;;;6.41;77.20;98343.21;226731;1273;22546;-77
2024/04/20 16:22:02;;;;;;;1.80;1.30;;;;;;;6.12;78.26;98357.40;226811;1269;22586;-79
2024/04/20 16:27:05;;;;;;;3.20;1.50;;;;;;;5.83;78.55;98370.75;226866;1273;22525;-80
2024/04/20 16:32:07;;;;;;;1.60;1.30;;;;;;;5.56;79.71;98377.24;226897;1272;22561;-79
2024/04/20 16:37:08;;;;;;;2.10;1.20;;;;;;;5.36;79.88;98386.38;226905;1272;22651;-80
2024/04/20 16:42:10;;;;;;;2.00;1.30;;;;;;;5.17;80.59;98396.45;226788;1273;22519;-78
2024/04/20 16:47:12;;;;;;;3.20;1.80;;;;;;;4.97;81.05;98406.61;226784;1273;22620;-78
2024/04/20 16:52:14;;;;;;;1.80;1.60;;;;;;;4.79;81.37;98409.95;226808;1273;22542;-80
2024/04/20 16:57:16;;;;;;;2.10;1.60;;;;;;;4.64;81.73;98420.41;226832;1273;22546;-79
2024/04/20 17:02:17;;;;;;;2.20;1.60;;;;;;;4.49;82.15;98431.22;226708;1270;22558;-80
2024/04/20 17:07:19;;;;;;;2.40;2.20;;;;;;;4.36;82.38;98440.39;226830;1269;22621;-80
2024/04/20 17:12:21;;;;;;;2.90;2.40;;;;;;;4.30;82.54;98443.48;226636;1273;25292;-82
2024/04/20 17:17:22;;;;;;;5.10;4.00;;;;;;;4.27;82.83;98447.59;226823;1271;22559;-79
2024/04/20 17:22:24;;;;;;;3.90;3.50;;;;;;;4.27;83.10;98458.56;226778;1273;22566;-80
2024/04/20 17:27:26;;;;;;;6.20;4.30;;;;;;;4.30;83.51;98462.76;226741;1270;22553;-80
2024/04/20 17:32:28;;;;;;;4.90;4.00;;;;;;;4.35;83.75;98473.10;226860;1273;22561;-80
2024/04/20 17:37:29;;;;;;;6.40;5.20;;;;;;;4.39;84.00;98483.30;226727;1273;22538;-80
2024/04/20 17:42:32;;;;;;;8.70;7.50;;;;;;;4.42;84.50;98489.11;226731;1273;22549;-80
2024/04/20 17:47:34;;;;;;;8.50;7.50;;;;;;;4.38;84.52;98500.52;226711;1273;22537;-79
2024/04/20 17:52:37;;;;;;;9.00;8.10;;;;;;;4.28;84.39;98504.45;226787;1272;22565;-79
2024/04/20 17:57:38;;;;;;;9.60;8.00;;;;;;;4.21;84.64;98518.27;226784;1270;22550;-78
2024/04/20 18:02:41;;;;;;;5.90;5.30;;;;;;;4.12;84.82;98528.23;226850;1273;22542;-80
2024/04/20 18:07:48;;;;;;;6.90;6.20;;;;;;;3.97;84.87;98544.63;226783;1273;25390;-80
2024/04/20 18:12:50;;;;;;;7.60;6.30;;;;;;;3.83;85.14;98555.32;226745;1273;23776;-80
2024/04/20 18:17:52;;;;;;;7.00;6.30;;;;;;;3.75;85.63;98566.17;226723;1267;22550;-79
2024/04/20 18:22:55;;;;;;;7.10;6.40;;;;;;;3.70;85.59;98573.52;226739;1273;22584;-80
2024/04/20 18:27:57;;;;;;;6.80;6.00;;;;;;;3.65;86.12;98579.06;226826;1273;22541;-80
2024/04/20 18:32:59;;;;;;;6.00;5.40;;;;;;;3.60;86.04;98596.48;226761;1254;22538;-80
2024/04/20 18:38:01;;;;;;;7.30;5.80;;;;;;;3.52;86.01;98596.53;226848;1273;25405;-80
2024/04/20 18:43:03;;;;;;;6.40;5.80;;;;;;;3.44;86.32;98603.20;226882;1251;22542;-80
2024/04/20 18:48:05;;;;;;;7.60;5.90;;;;;;;3.39;86.29;98611.90;226913;1270;22538;-79
2024/04/20 18:53:07;;;;;;;6.90;5.80;;;;;;;3.35;86.67;98617.86;226700;1270;22552;-80
2024/04/20 18:58:09;;;;;;;9.70;5.80;;;;;;;3.30;86.84;98626.83;226749;1271;22560;-79
2024/04/20 19:03:11;;;;;;;7.30;6.60;;;;;;;3.26;86.74;98635.95;226887;1273;22562;-80
2024/04/20 19:08:13;;;;;;;8.50;7.60;;;;;;;3.22;87.05;98647.14;226726;1270;22555;-80
2024/04/20 19:13:15;;;;;;;8.90;8.00;;;;;;;3.19;86.80;98654.48;226776;1270;22742;-80
2024/04/20 19:18:16;;;;;;;9.20;8.30;;;;;;;3.18;86.77;98662.59;226854;1272;22600;-80
2024/04/20 19:23:18;;;;;;;9.40;8.20;;;;;;;3.17;87.20;98665.48;226846;1264;22592;-80
2024/04/20 19:28:20;;;;;;;8.60;7.70;;;;;;;3.17;87.30;98665.50;226890;1271;22534;-81
2024/04/20 19:33:27;;;;;;;9.40;8.20;;;;;;;3.14;87.37;98667.88;226689;1272;23502;-80
2024/04/20 19:38:30;;;;;;;10.30;9.00;;;;;;;3.09;87.30;98677.27;226886;1273;22545;-80
2024/04/20 19:43:35;;;;;;;12.30;10.00;;;;;;;3.05;87.18;98675.53;226891;1273;22557;-80
2024/04/20 19:48:38;;;;;;;11.50;10.10;;;;;;;3.04;87.43;98681.23;226879;1272;22645;-79
2024/04/20 19:53:41;;;;;;;12.10;10.80;;;;;;;3.05;87.57;98693.64;226882;1273;22637;-79
2024/04/20 19:58:45;;;;;;;13.20;11.70;;;;;;;3.07;87.62;98697.29;226777;1266;22546;-80
2024/04/20 20:03:47;;;;;;;11.40;10.20;;;;;;;3.10;87.40;98696.66;226929;1269;22557;-80
2024/04/20 20:08:50;;;;;;;11.10;10.00;;;;;;;3.13;87.76;98702.26;226850;1272;22656;-80
2024/04/20 20:13:51;;;;;;;11.40;10.20;;;;;;;3.14;87.86;98703.02;226805;1267;22544;-80
2024/04/20 20:18:53;;;;;;;12.60;10.00;;;;;;;3.15;87.91;98705.05;226878;1272;22546;-81
2024/04/20 20:23:55;;;;;;;12.40;9.30;;;;;;;3.11;87.55;98706.60;226700;1273;23049;-80
2024/04/20 20:28:57;;;;;;;10.70;9.60;;;;;;;3.07;87.31;98705.75;226861;1273;22550;-80
2024/04/20 20:33:59;;;;;;;12.10;10.20;;;;;;;3.03;87.49;98708.89;226790;1271;22541;-79
2024/04/20 20:39:00;;;;;;;12.00;10.80;;;;;;;3.02;87.31;98720.70;226774;1269;22550;-79
2024/04/20 20:44:02;;;;;;;11.10;9.90;;;;;;;3.00;87.59;98725.20;226927;1270;22562;-80
2024/04/20 20:49:04;;;;;;;10.30;9.20;;;;;;;2.98;87.73;98728.08;226799;1273;22557;-81
2024/04/20 20:54:05;;;;;;;10.20;8.40;;;;;;;2.96;88.05;98732.27;226860;1271;22577;-81
2024/04/20 20:59:07;;;;;;;11.90;9.80;;;;;;;2.93;87.45;98732.68;226738;1273;22561;-80
2024/04/20 21:04:09;;;;;;;12.20;10.30;;;;;;;2.92;87.86;98738.12;226767;1267;24193;-81
2024/04/20 21:09:11;;;;;;;10.40;8.40;;;;;;;2.89;87.70;98745.04;226785;1273;22540;-82
2024/04/20 21:14:13;;;;;;;8.90;8.00;;;;;;;2.82;87.58;98743.05;226754;1272;22608;-80
2024/04/20 21:19:15;;;;;;;9.00;8.00;;;;;;;2.77;87.70;98749.58;226718;1269;22555;-81
2024/04/20 21:24:17;;;;;;;11.40;10.10;;;;;;;2.75;87.94;98755.04;226855;1273;22638;-81
2024/04/20 21:29:24;;;;;;;9.90;8.60;;;;;;;2.74;87.77;98758.41;226873;1273;22537;-81
2024/04/20 21:34:25;;;;;;;8.30;7.50;;;;;;;2.72;87.70;98760.66;226747;1270;25411;-81
2024/04/20 21:39:27;;;;;;;10.80;8.00;;;;;;;2.70;88.23;98763.08;226703;1273;22565;-80
2024/04/20 21:44:29;;;;;;;8.70;7.40;;;;;;;2.70;87.83;98765.40;226892;1269;22552;-80
2024/04/20 21:49:31;;;;;;;11.90;8.50;;;;;;;2.67;87.81;98766.39;226901;1273;22552;-79
2024/04/20 21:54:32;;;;;;;8.70;7.10;;;;;;;2.66;87.73;98767.19;226787;1269;23020;-80
2024/04/20 21:59:34;;;;;;;8.40;6.60;;;;;;;2.64;88.01;98771.80;226925;1266;22544;-80
2024/04/20 22:04:36;;;;;;;7.40;6.60;;;;;;;2.60;87.97;98775.50;226759;1269;23508;-80
2024/04/20 22:09:38;;;;;;;8.20;7.00;;;;;;;2.55;87.89;98782.54;226790;1273;22527;-80
2024/04/20 22:14:40;;;;;;;8.30;7.00;;;;;;;2.52;87.69;98785.30;226896;1272;22542;-80
2024/04/20 22:19:41;;;;;;;8.00;6.70;;;;;;;2.50;87.99;98784.92;226704;1272;25259;-79
2024/04/20 22:24:43;;;;;;;8.70;6.80;;;;;;;2.47;87.46;98790.22;226736;1270;22539;-80
2024/04/20 22:29:45;;;;;;;9.20;7.40;;;;;;;2.41;87.43;98788.14;226861;1269;22550;-81
2024/04/20 22:34:47;;;;;;;8.40;6.60;;;;;;;2.36;87.66;98792.14;226784;1269;22547;-80
2024/04/20 22:39:48;;;;;;;7.80;6.60;;;;;;;2.31;87.60;98790.94;226684;1269;22546;-78
2024/04/20 22:44:50;;;;;;;8.20;7.40;;;;;;;2.27;87.41;98788.89;226793;1273;23593;-81
2024/04/20 22:49:52;;;;;;;9.00;7.60;;;;;;;2.24;87.90;98788.42;226726;1273;24957;-80
2024/04/20 22:54:54;;;;;;;8.30;7.40;;;;;;;2.23;87.46;98785.95;226722;1270;22580;-80
2024/04/20 22:59:56;;;;;;;8.00;7.00;;;;;;;2.22;87.74;98784.33;226742;1270;22602;-80
2024/04/20 23:04:57;;;;;;;7.70;6.50;;;;;;;2.21;87.43;98791.05;226747;1267;22480;-80
2024/04/20 23:10:01;;;;;;;8.20;7.20;;;;;;;2.18;87.50;98787.14;226607;1273;22534;-80
2024/04/20 23:15:04;;;;;;;8.00;6.90;;;;;;;2.17;87.48;98786.52;226956;1269;22527;-81
2024/04/20 23:20:06;;;;;;;9.00;7.00;;;;;;;2.15;87.72;98783.20;226913;1269;22559;-81
2024/04/20 23:25:08;;;;;;;9.10;7.60;;;;;;;2.11;87.48;98784.53;226865;1260;22529;-80
2024/04/20 23:30:11;;;;;;;8.40;7.40;;;;;;;2.08;87.36;98788.77;226819;1272;22586;-80
2024/04/20 23:35:12;;;;;;;8.00;7.20;;;;;;;2.06;87.65;98786.60;226674;1265;23015;-81
2024/04/20 23:40:14;;;;;;;8.70;7.00;;;;;;;2.04;87.62;98785.22;226848;1272;22603;-81